Time;durP1;ratioP1;P1;durP2;ratioP2;P2;SDS_P1;SDS_P2;PMS_P1;PMS_P2;Temp;Humidity;BMP_temperature;BMP_pressure;BME280_temperature;BME280_humidity;BME280_pressure;Samples;Min_cycle;Max_cycle;Signal;HPM_P1;HPM_P2
2023/01/14 05:00:58;;;;;;;0.70;0.70;;;6.70;99.90;;;;;;5620977;23;20236;-66
2023/01/14 05:03:25;;;;;;;0.73;0.73;;;6.70;99.90;;;;;;4906716;29;20233;-66
2023/01/14 05:05:51;;;;;;;0.60;0.60;;;6.70;99.90;;;;;;4915101;29;20224;-66
2023/01/14 05:08:19;;;;;;;0.50;0.50;;;6.70;99.90;;;;;;4914259;29;20800;-66
2023/01/14 05:10:48;;;;;;;4.90;1.13;;;6.70;99.90;;;;;;4906220;29;20725;-66
2023/01/14 05:13:15;;;;;;;0.40;0.40;;;6.70;99.90;;;;;;4907993;29;20215;-66
2023/01/14 05:15:44;;;;;;;1.60;1.40;;;6.70;99.90;;;;;;4912460;29;20212;-66
2023/01/14 05:18:14;;;;;;;0.85;0.85;;;6.70;99.90;;;;;;4908761;29;20208;-66
2023/01/14 05:20:41;;;;;;;1.20;1.15;;;6.70;99.90;;;;;;4910269;29;20237;-66
2023/01/14 05:23:12;;;;;;;0.43;0.43;;;6.70;99.90;;;;;;4910734;29;20246;-66
2023/01/14 05:25:38;;;;;;;0.70;0.70;;;6.70;99.90;;;;;;4906587;29;20212;-66
2023/01/14 05:28:08;;;;;;;4.05;0.90;;;6.70;99.90;;;;;;4913609;29;20216;-66
2023/01/14 05:30:35;;;;;;;0.95;0.68;;;6.70;99.90;;;;;;4907532;29;20244;-66
2023/01/14 05:33:02;;;;;;;0.60;0.60;;;6.60;99.90;;;;;;4913683;29;20210;-66
2023/01/14 05:35:30;;;;;;;0.30;0.30;;;6.60;99.90;;;;;;4911691;29;20238;-66
2023/01/14 05:37:56;;;;;;;1.08;0.77;;;6.60;99.90;;;;;;4910446;29;20212;-65
2023/01/14 05:40:23;;;;;;;0.90;0.90;;;6.60;99.90;;;;;;4910225;29;20208;-65
2023/01/14 05:45:47;;;;;;;5.10;1.17;;;6.50;99.90;;;;;;4908811;29;20230;-66
2023/01/14 05:48:15;;;;;;;1.98;1.38;;;6.50;99.90;;;;;;4908983;29;20270;-65
2023/01/14 05:50:43;;;;;;;1.98;1.08;;;6.50;99.90;;;;;;4912070;29;20242;-66
2023/01/14 05:53:10;;;;;;;0.70;0.70;;;6.50;99.90;;;;;;4911603;29;20215;-65
2023/01/14 05:55:37;;;;;;;2.05;1.20;;;6.50;99.90;;;;;;4908974;29;20223;-65
2023/01/14 05:58:05;;;;;;;0.90;0.90;;;6.60;99.90;;;;;;4905443;29;20279;-65
2023/01/14 06:06:23;;;;;;;2.45;2.25;;;6.60;99.90;;;;;;4911555;29;20431;-66
2023/01/14 06:08:51;;;;;;;0.30;0.30;;;6.60;99.90;;;;;;4909016;29;20230;-66
2023/01/14 06:11:19;;;;;;;6.53;0.82;;;6.60;99.90;;;;;;4905945;29;20240;-65
2023/01/14 06:13:46;;;;;;;0.70;0.70;;;6.60;99.90;;;;;;4912299;29;20201;-66
2023/01/14 06:16:13;;;;;;;4.32;1.33;;;6.70;99.90;;;;;;4905014;29;20266;-66
2023/01/14 06:18:42;;;;;;;0.38;0.38;;;6.70;99.90;;;;;;4907660;29;20208;-65
2023/01/14 06:21:11;;;;;;;0.50;0.50;;;6.60;99.90;;;;;;4905647;29;20380;-65
2023/01/14 06:23:38;;;;;;;6.00;2.17;;;6.60;99.90;;;;;;4897392;29;20231;-65
2023/01/14 06:26:09;;;;;;;1.17;0.88;;;6.60;99.90;;;;;;4910142;29;20223;-66
2023/01/14 06:28:36;;;;;;;6.78;0.88;;;6.60;99.90;;;;;;4904963;29;20283;-66
2023/01/14 06:31:07;;;;;;;0.70;0.60;;;6.70;99.90;;;;;;4911231;29;20291;-65
2023/01/14 06:33:34;;;;;;;1.75;1.10;;;6.60;99.90;;;;;;4910672;29;20211;-66
2023/01/14 06:36:01;;;;;;;0.55;0.55;;;6.60;99.90;;;;;;4907410;29;20205;-65
2023/01/14 06:38:29;;;;;;;0.70;0.70;;;6.70;99.90;;;;;;4904892;29;20212;-66
2023/01/14 06:40:59;;;;;;;0.70;0.70;;;6.70;99.90;;;;;;4912067;29;20598;-65
2023/01/14 06:43:26;;;;;;;1.58;1.58;;;6.70;99.90;;;;;;4913550;29;20231;-65
2023/01/14 06:45:53;;;;;;;0.80;0.80;;;6.70;99.90;;;;;;4913705;29;20216;-65
2023/01/14 06:48:20;;;;;;;3.80;1.55;;;6.70;99.90;;;;;;4912550;29;20212;-65
2023/01/14 06:50:46;;;;;;;1.45;1.10;;;6.70;99.90;;;;;;4906846;29;20228;-65
2023/01/14 06:53:13;;;;;;;3.90;1.17;;;6.60;99.90;;;;;;4908000;29;20239;-65
2023/01/14 06:55:41;;;;;;;1.83;1.65;;;6.60;99.90;;;;;;4910850;29;20221;-65
2023/01/14 06:58:08;;;;;;;1.90;1.80;;;6.60;99.90;;;;;;4907421;29;20224;-65
2023/01/14 07:00:35;;;;;;;5.72;1.33;;;6.60;99.90;;;;;;4910261;29;20307;-65
2023/01/14 07:03:02;;;;;;;7.70;4.00;;;6.60;99.90;;;;;;4915947;29;20209;-65
2023/01/14 07:05:28;;;;;;;0.90;0.90;;;6.60;99.90;;;;;;4913634;29;20228;-65
2023/01/14 07:07:55;;;;;;;1.50;1.50;;;6.60;99.90;;;;;;4917195;29;20210;-65
2023/01/14 07:10:22;;;;;;;1.17;1.17;;;6.50;99.90;;;;;;4909380;29;20208;-65
2023/01/14 07:12:51;;;;;;;22.25;1.88;;;6.50;99.90;;;;;;4906082;29;20554;-65
2023/01/14 07:15:20;;;;;;;3.55;1.15;;;6.50;99.90;;;;;;4911118;29;20208;-65
2023/01/14 07:17:48;;;;;;;6.57;2.20;;;6.40;99.90;;;;;;4899042;29;20207;-65
2023/01/14 07:20:16;;;;;;;1.60;1.00;;;6.40;99.90;;;;;;4907361;29;20229;-65
2023/01/14 07:22:43;;;;;;;2.75;2.15;;;6.40;99.90;;;;;;4914983;29;20224;-65
2023/01/14 07:25:10;;;;;;;8.30;2.45;;;6.40;99.90;;;;;;4903523;29;20243;-66
2023/01/14 07:27:36;;;;;;;0.98;0.98;;;6.40;99.90;;;;;;4903376;29;20231;-66
2023/01/14 07:30:06;;;;;;;1.63;1.52;;;6.30;99.90;;;;;;4904693;29;20211;-65
2023/01/14 07:32:33;;;;;;;0.85;0.85;;;6.40;99.90;;;;;;4909892;29;20239;-65
2023/01/14 07:35:00;;;;;;;0.88;0.88;;;6.30;99.90;;;;;;4906217;29;20203;-65
2023/01/14 07:37:27;;;;;;;1.00;1.00;;;6.30;99.90;;;;;;4910230;29;20216;-65
2023/01/14 07:39:53;;;;;;;1.48;1.48;;;6.30;99.90;;;;;;4910030;29;20208;-65
2023/01/14 07:42:20;;;;;;;1.15;1.05;;;6.20;99.90;;;;;;4906820;29;20235;-65
2023/01/14 07:44:47;;;;;;;3.40;1.25;;;6.20;99.90;;;;;;4912056;29;20235;-65
2023/01/14 07:47:16;;;;;;;3.80;2.15;;;6.20;99.90;;;;;;4902803;29;20242;-65
2023/01/14 07:49:43;;;;;;;5.75;1.25;;;6.20;99.90;;;;;;4905999;29;20303;-65
2023/01/14 07:52:12;;;;;;;16.40;1.33;;;6.20;99.90;;;;;;4905617;29;20266;-65
2023/01/14 07:54:39;;;;;;;0.90;0.90;;;6.20;99.90;;;;;;4905371;29;20216;-65
2023/01/14 07:57:07;;;;;;;7.15;1.25;;;6.20;99.90;;;;;;4904132;29;20677;-65
2023/01/14 07:59:34;;;;;;;1.50;1.50;;;6.10;99.90;;;;;;4911080;29;20222;-65
2023/01/14 08:02:00;;;;;;;0.30;0.30;;;6.20;99.90;;;;;;4914623;29;20245;-65
2023/01/14 08:04:29;;;;;;;1.63;1.63;;;6.10;99.90;;;;;;4910456;29;20279;-66
2023/01/14 08:06:58;;;;;;;0.68;0.68;;;6.20;99.90;;;;;;4907427;29;20693;-65
2023/01/14 08:09:25;;;;;;;4.80;1.10;;;6.10;99.90;;;;;;4912568;29;20211;-65
2023/01/14 08:11:51;;;;;;;9.45;1.27;;;6.20;99.90;;;;;;4905489;29;20245;-65
2023/01/14 08:14:18;;;;;;;1.02;1.02;;;6.20;99.90;;;;;;4903696;29;20228;-68
2023/01/14 08:16:45;;;;;;;1.15;1.15;;;6.30;99.90;;;;;;4905344;29;20486;-67
2023/01/14 08:19:12;;;;;;;1.10;1.05;;;6.20;99.90;;;;;;4910978;29;20219;-67
2023/01/14 08:21:40;;;;;;;2.63;2.03;;;6.30;99.90;;;;;;4909781;29;20243;-65
2023/01/14 08:24:07;;;;;;;15.10;1.60;;;6.30;99.90;;;;;;4902987;29;20244;-67
2023/01/14 08:26:34;;;;;;;21.80;1.48;;;6.30;99.90;;;;;;4913471;29;20650;-67
2023/01/14 08:29:01;;;;;;;13.40;1.30;;;6.30;99.90;;;;;;4906274;29;20203;-67
2023/01/14 08:31:27;;;;;;;2.97;1.45;;;6.40;99.90;;;;;;4900850;29;20300;-67
2023/01/14 08:33:55;;;;;;;5.07;2.67;;;6.40;99.90;;;;;;4910052;29;20208;-67
2023/01/14 08:36:22;;;;;;;6.15;1.33;;;6.40;99.90;;;;;;4905561;29;20314;-65
2023/01/14 08:38:53;;;;;;;1.10;1.05;;;6.50;99.90;;;;;;4906809;29;20680;-65
2023/01/14 08:41:20;;;;;;;2.20;1.40;;;6.50;99.90;;;;;;4911307;29;20256;-66
2023/01/14 08:43:48;;;;;;;14.25;1.55;;;6.50;99.90;;;;;;4904152;29;20209;-65
2023/01/14 08:46:15;;;;;;;7.13;2.20;;;6.60;99.90;;;;;;4911540;29;20215;-66
2023/01/14 08:48:42;;;;;;;1.08;1.08;;;6.60;99.90;;;;;;4912531;29;20211;-66
2023/01/14 08:51:11;;;;;;;0.95;0.95;;;6.60;99.90;;;;;;4906550;29;20239;-66
2023/01/14 08:53:39;;;;;;;1.98;1.48;;;6.60;99.90;;;;;;4910978;29;20670;-66
2023/01/14 08:56:10;;;;;;;3.05;1.80;;;6.70;99.90;;;;;;4907033;29;20664;-66
2023/01/14 08:58:37;;;;;;;6.72;1.38;;;6.60;99.90;;;;;;4914112;29;20624;-66
2023/01/14 09:01:06;;;;;;;1.40;1.08;;;6.70;99.90;;;;;;4912364;29;20256;-66
2023/01/14 09:03:35;;;;;;;4.22;1.90;;;6.70;99.90;;;;;;4899893;29;21013;-66
2023/01/14 09:06:03;;;;;;;8.88;2.22;;;6.70;99.90;;;;;;4909552;29;20240;-65
2023/01/14 09:17:09;;;;;;;3.63;3.35;;;6.80;99.90;;;;;;4909692;29;20223;-68
2023/01/14 09:19:40;;;;;;;7.47;6.00;;;6.90;99.90;;;;;;4910976;29;20223;-66
2023/01/14 09:22:09;;;;;;;23.67;9.60;;;6.90;99.90;;;;;;4912756;29;20233;-66
2023/01/14 09:24:35;;;;;;;6.40;4.75;;;6.90;99.90;;;;;;4912191;29;20238;-66
2023/01/14 09:27:04;;;;;;;3.90;3.08;;;6.90;99.90;;;;;;4910325;29;20220;-66
2023/01/14 09:29:30;;;;;;;3.78;2.80;;;7.00;99.90;;;;;;4908228;29;20219;-66
2023/01/14 09:31:57;;;;;;;13.05;3.72;;;7.00;99.90;;;;;;4911490;29;20243;-66
2023/01/14 09:34:24;;;;;;;8.35;5.18;;;7.00;99.90;;;;;;4911150;29;20903;-66
2023/01/14 09:36:51;;;;;;;5.03;3.30;;;7.00;99.90;;;;;;4911868;29;20222;-66
2023/01/14 09:39:18;;;;;;;2.72;2.42;;;7.00;99.90;;;;;;4913275;29;20695;-68
2023/01/14 09:41:51;;;;;;;1.90;1.35;;;7.10;99.90;;;;;;4910255;29;20243;-66
2023/01/14 09:44:21;;;;;;;2.33;2.17;;;7.10;99.90;;;;;;4903711;29;22122;-66
2023/01/14 09:46:47;;;;;;;1.63;1.10;;;7.10;99.90;;;;;;4902504;29;20223;-67
2023/01/14 09:49:18;;;;;;;0.98;0.98;;;7.10;99.90;;;;;;4903213;29;20589;-66
2023/01/14 09:52:17;;;;;;;3.55;3.35;;;7.20;99.90;;;;;;4905488;29;20228;-66
2023/01/14 09:54:55;;;;;;;2.50;2.40;;;7.20;99.90;;;;;;4907267;29;20203;-66
2023/01/14 09:57:32;;;;;;;2.00;1.70;;;7.30;99.90;;;;;;4907324;29;20216;-66
2023/01/14 10:00:06;;;;;;;6.80;1.35;;;7.20;99.90;;;;;;4897853;29;20223;-66
2023/01/14 10:02:40;;;;;;;1.17;1.17;;;7.30;99.90;;;;;;4907042;29;20239;-66
2023/01/14 10:05:19;;;;;;;2.63;1.58;;;7.30;99.90;;;;;;4907152;29;20228;-66
2023/01/14 10:07:46;;;;;;;0.88;0.88;;;7.30;99.90;;;;;;4904056;29;20585;-67
2023/01/14 10:10:24;;;;;;;2.70;2.50;;;7.30;99.90;;;;;;4905805;29;20216;-67
2023/01/14 10:12:53;;;;;;;2.83;2.58;;;7.40;99.90;;;;;;4902637;29;20213;-66
2023/01/14 10:15:31;;;;;;;1.75;1.73;;;7.40;99.90;;;;;;4903291;29;20210;-66
2023/01/14 10:18:04;;;;;;;2.17;1.35;;;7.40;99.90;;;;;;4906254;29;20224;-66
2023/01/14 10:20:35;;;;;;;1.58;1.52;;;7.40;99.90;;;;;;4906135;29;20216;-67
2023/01/14 10:23:09;;;;;;;1.63;1.52;;;7.40;99.90;;;;;;4913123;29;20215;-66
2023/01/14 10:25:36;;;;;;;1.42;0.88;;;7.40;99.90;;;;;;4909062;29;20234;-66
2023/01/14 10:28:03;;;;;;;1.88;1.83;;;7.50;99.90;;;;;;4904922;29;20247;-67
2023/01/14 10:30:34;;;;;;;4.13;1.40;;;7.50;99.90;;;;;;4907448;29;20216;-66
2023/01/14 10:33:05;;;;;;;1.55;1.45;;;7.50;99.90;;;;;;4909753;29;20208;-66
2023/01/14 10:35:34;;;;;;;1.65;1.25;;;7.50;99.90;;;;;;4913637;29;20220;-66
2023/01/14 10:38:01;;;;;;;5.05;3.38;;;7.50;99.90;;;;;;4898586;29;20232;-66
2023/01/14 10:40:29;;;;;;;12.00;3.28;;;7.50;99.90;;;;;;4912842;29;20217;-66
2023/01/14 10:42:58;;;;;;;3.20;2.63;;;7.50;99.90;;;;;;4908929;29;20218;-67
2023/01/14 10:45:25;;;;;;;4.20;3.55;;;7.50;99.90;;;;;;4907760;29;20263;-67
2023/01/14 10:47:56;;;;;;;6.70;2.83;;;7.50;99.90;;;;;;4916157;29;20217;-67
2023/01/14 10:50:25;;;;;;;2.03;1.77;;;7.50;99.90;;;;;;4905187;29;20635;-67
2023/01/14 10:52:53;;;;;;;7.53;4.70;;;7.50;99.90;;;;;;4905700;29;20221;-67
2023/01/14 10:55:23;;;;;;;4.22;2.25;;;7.50;99.90;;;;;;4915824;29;20588;-67
2023/01/14 10:57:54;;;;;;;4.13;1.58;;;7.50;99.90;;;;;;4912888;29;20227;-66
2023/01/14 11:00:35;;;;;;;5.90;5.40;;;7.50;99.90;;;;;;4907807;29;20210;-67
2023/01/14 11:03:07;;;;;;;9.80;4.68;;;7.60;99.90;;;;;;4909694;29;20248;-66
2023/01/14 11:05:36;;;;;;;5.00;2.95;;;7.60;99.90;;;;;;4910491;29;20630;-67
2023/01/14 11:08:21;;;;;;;6.00;4.45;;;7.70;99.90;;;;;;4904103;29;20578;-66
2023/01/14 11:10:55;;;;;;;12.63;2.72;;;7.60;99.90;;;;;;4905506;29;20289;-67
2023/01/14 11:13:28;;;;;;;1.50;1.40;;;7.60;99.90;;;;;;4898561;29;20216;-67
2023/01/14 11:15:55;;;;;;;8.35;4.90;;;7.60;99.90;;;;;;4903355;29;20653;-67
2023/01/14 11:18:27;;;;;;;15.30;3.15;;;7.50;99.90;;;;;;4912840;29;20581;-67
2023/01/14 11:21:02;;;;;;;13.48;6.43;;;7.50;99.90;;;;;;4909785;29;20316;-67
2023/01/14 11:23:32;;;;;;;3.15;2.30;;;7.50;99.90;;;;;;4912423;29;20234;-67
2023/01/14 11:26:03;;;;;;;2.70;2.60;;;7.50;99.90;;;;;;4907806;29;20236;-67
2023/01/14 11:28:30;;;;;;;10.00;2.13;;;7.50;99.90;;;;;;4911320;29;20235;-66
2023/01/14 11:30:57;;;;;;;4.53;1.13;;;7.50;99.90;;;;;;4901963;29;20239;-66
2023/01/14 11:33:27;;;;;;;1.80;1.38;;;7.50;99.90;;;;;;4900257;29;20695;-67
2023/01/14 11:35:57;;;;;;;2.75;2.47;;;7.50;99.90;;;;;;4911997;29;20209;-66
2023/01/14 11:38:25;;;;;;;2.00;1.85;;;7.50;99.90;;;;;;4905614;29;20216;-66
2023/01/14 11:43:55;;;;;;;1.73;1.73;;;7.50;99.90;;;;;;4904813;29;20248;-66
2023/01/14 11:46:22;;;;;;;0.47;0.47;;;7.50;99.90;;;;;;4900741;29;20232;-67
2023/01/14 11:49:04;;;;;;;1.73;1.63;;;7.50;99.90;;;;;;4914795;29;20205;-67
2023/01/14 11:51:32;;;;;;;7.00;0.70;;;7.50;99.90;;;;;;4903526;29;22175;-66
2023/01/14 11:53:59;;;;;;;2.78;1.38;;;7.50;99.90;;;;;;4897362;29;20689;-67
2023/01/14 11:56:32;;;;;;;2.45;2.30;;;7.40;99.90;;;;;;4907661;29;20219;-67
2023/01/14 11:59:00;;;;;;;2.13;2.00;;;7.40;99.90;;;;;;4903823;29;20209;-66
2023/01/14 12:01:33;;;;;;;1.67;1.58;;;7.40;99.90;;;;;;4905412;29;20244;-67
2023/01/14 12:04:05;;;;;;;9.57;2.03;;;7.40;99.90;;;;;;4909176;29;20224;-66
2023/01/14 12:06:45;;;;;;;1.45;1.10;;;7.30;99.90;;;;;;4909830;29;20237;-68
2023/01/14 12:09:17;;;;;;;1.67;1.60;;;7.30;99.90;;;;;;4902720;29;20228;-67
2023/01/14 12:11:51;;;;;;;4.82;1.30;;;7.30;99.90;;;;;;4907916;29;20231;-66
2023/01/14 12:17:13;;;;;;;0.93;0.50;;;7.20;99.90;;;;;;4906866;29;20202;-66
2023/01/14 12:19:46;;;;;;;1.45;1.45;;;7.20;99.90;;;;;;4902991;29;20674;-66
2023/01/14 12:22:17;;;;;;;4.82;0.52;;;7.10;99.90;;;;;;4903356;29;20243;-66
2023/01/14 12:25:05;;;;;;;1.30;1.10;;;7.10;99.90;;;;;;4902730;29;20589;-67
2023/01/14 12:27:45;;;;;;;4.47;3.10;;;7.00;99.90;;;;;;4913642;29;20243;-67
2023/01/14 12:30:36;;;;;;;0.80;0.80;;;7.00;99.90;;;;;;4909861;29;20231;-66
2023/01/14 12:33:07;;;;;;;4.32;1.98;;;7.00;99.90;;;;;;4905069;29;20207;-66
2023/01/14 12:35:42;;;;;;;0.63;0.63;;;6.90;99.90;;;;;;4903740;29;20209;-67
2023/01/14 12:46:31;;;;;;;5.78;1.23;;;6.80;99.90;;;;;;4905878;29;20276;-66
2023/01/14 12:48:59;;;;;;;6.05;1.50;;;6.80;99.90;;;;;;4904120;29;20264;-66
2023/01/14 12:51:30;;;;;;;11.82;1.73;;;6.80;99.90;;;;;;4905034;29;20261;-66
2023/01/14 12:54:00;;;;;;;5.15;1.20;;;6.80;99.90;;;;;;4903771;29;20213;-66
2023/01/14 12:56:30;;;;;;;1.45;1.45;;;6.80;99.90;;;;;;4914943;29;20212;-66
2023/01/14 12:59:00;;;;;;;0.68;0.30;;;6.80;99.90;;;;;;4908044;29;20575;-66
2023/01/14 13:01:30;;;;;;;1.50;1.35;;;6.70;99.90;;;;;;4905820;29;20724;-65
2023/01/14 13:04:00;;;;;;;1.35;1.35;;;6.70;99.90;;;;;;4898854;29;20235;-66
2023/01/14 13:06:34;;;;;;;4.78;1.17;;;6.70;99.90;;;;;;4907399;29;20235;-66
2023/01/14 13:09:03;;;;;;;5.18;2.50;;;6.70;99.90;;;;;;4906473;29;20749;-66
2023/01/14 13:11:40;;;;;;;1.50;1.38;;;6.80;99.90;;;;;;4901167;29;20233;-67
2023/01/14 13:14:21;;;;;;;1.88;1.83;;;6.80;99.90;;;;;;4912875;29;20294;-66
2023/01/14 13:16:48;;;;;;;1.02;1.02;;;6.80;99.90;;;;;;4901189;29;20196;-66
2023/01/14 13:19:35;;;;;;;2.60;2.50;;;6.70;99.90;;;;;;4909851;29;20213;-67
2023/01/14 13:22:05;;;;;;;1.27;1.27;;;6.80;99.90;;;;;;4906825;29;20232;-66
2023/01/14 13:24:37;;;;;;;3.85;1.75;;;6.80;99.90;;;;;;4900643;29;20213;-66
2023/01/14 13:27:33;;;;;;;1.02;1.00;;;6.80;99.90;;;;;;4902397;29;20232;-66
2023/01/14 13:30:37;;;;;;;3.30;0.93;;;6.80;99.90;;;;;;4908042;29;20211;-66
2023/01/14 13:33:20;;;;;;;1.85;0.90;;;6.80;99.90;;;;;;4909891;29;20201;-66
2023/01/14 13:36:29;;;;;;;1.70;1.45;;;6.80;99.90;;;;;;4912419;29;20264;-67
2023/01/14 13:39:01;;;;;;;15.48;2.97;;;6.80;99.90;;;;;;4908530;29;20226;-66
2023/01/14 13:41:39;;;;;;;1.10;1.10;;;6.90;99.90;;;;;;4912762;29;20689;-66
2023/01/14 13:44:16;;;;;;;1.85;1.20;;;6.90;99.90;;;;;;4908394;29;20208;-66
2023/01/14 13:46:49;;;;;;;1.33;1.23;;;6.90;99.90;;;;;;4911944;29;20688;-65
2023/01/14 13:49:25;;;;;;;2.45;2.25;;;6.80;99.90;;;;;;4908961;29;20239;-65
2023/01/14 13:51:57;;;;;;;5.07;1.40;;;6.90;99.90;;;;;;4903851;29;20243;-66
2023/01/14 13:54:29;;;;;;;1.30;1.02;;;6.80;99.90;;;;;;4914362;29;20401;-66
2023/01/14 13:57:13;;;;;;;3.63;2.05;;;6.80;99.90;;;;;;4909828;29;20197;-66
2023/01/14 13:59:44;;;;;;;6.22;3.10;;;6.80;99.90;;;;;;4896885;29;20299;-66
2023/01/14 14:02:48;;;;;;;1.88;1.88;;;6.80;99.90;;;;;;4909853;29;20300;-66
2023/01/14 14:05:28;;;;;;;0.90;0.90;;;6.80;99.90;;;;;;4908031;29;20213;-66
2023/01/14 14:08:27;;;;;;;0.65;0.65;;;6.80;99.90;;;;;;4910965;29;20205;-67
2023/01/14 14:11:02;;;;;;;1.52;1.42;;;6.90;99.90;;;;;;4904622;29;20349;-67
2023/01/14 14:16:20;;;;;;;1.52;1.48;;;6.90;99.90;;;;;;4903262;29;20324;-67
2023/01/14 14:18:53;;;;;;;4.00;0.75;;;6.90;99.90;;;;;;4910025;29;20214;-66
2023/01/14 14:21:24;;;;;;;1.75;0.63;;;6.90;99.90;;;;;;4905376;29;20242;-66
2023/01/14 14:23:55;;;;;;;0.90;0.90;;;6.90;99.90;;;;;;4905985;29;20220;-66
2023/01/14 14:26:28;;;;;;;3.42;1.38;;;6.90;99.90;;;;;;4912219;29;20257;-66
2023/01/14 14:28:58;;;;;;;0.93;0.93;;;6.90;99.90;;;;;;4912958;29;20653;-67
2023/01/14 14:31:30;;;;;;;3.22;3.08;;;7.00;99.90;;;;;;4909241;29;20236;-67
2023/01/14 14:34:04;;;;;;;0.88;0.88;;;7.00;99.90;;;;;;4913482;29;20315;-67
2023/01/14 14:36:31;;;;;;;1.30;1.30;;;7.00;99.90;;;;;;4903959;29;20213;-66
2023/01/14 14:39:01;;;;;;;5.15;1.02;;;7.00;99.90;;;;;;4906211;29;20237;-67
2023/01/14 14:41:34;;;;;;;0.60;0.60;;;7.00;99.90;;;;;;4908878;29;20239;-67
2023/01/14 14:44:06;;;;;;;0.85;0.85;;;7.00;99.90;;;;;;4908546;29;20204;-66
2023/01/14 14:46:33;;;;;;;0.90;0.90;;;7.00;99.90;;;;;;4911308;29;20559;-67
2023/01/14 14:49:11;;;;;;;5.70;1.38;;;7.00;99.90;;;;;;4910067;29;20209;-66
2023/01/14 14:51:44;;;;;;;6.30;2.92;;;7.00;99.90;;;;;;4909322;29;20247;-67
2023/01/14 14:54:25;;;;;;;1.27;1.27;;;7.10;99.90;;;;;;4894743;29;20212;-67
2023/01/14 14:56:54;;;;;;;0.73;0.73;;;7.10;99.90;;;;;;4909100;29;20217;-67
2023/01/14 14:59:22;;;;;;;2.05;1.30;;;7.10;99.90;;;;;;4902873;29;20851;-67
2023/01/14 15:01:49;;;;;;;1.40;1.27;;;7.10;99.90;;;;;;4904535;29;20254;-66
2023/01/14 15:04:18;;;;;;;0.50;0.50;;;7.10;99.90;;;;;;4910707;29;20209;-66
2023/01/14 15:06:46;;;;;;;1.05;1.05;;;7.10;99.90;;;;;;4910044;29;20236;-66
2023/01/14 15:09:18;;;;;;;1.30;1.30;;;7.10;99.90;;;;;;4912882;29;20914;-66
2023/01/14 15:11:48;;;;;;;0.88;0.88;;;7.10;99.90;;;;;;4909002;29;20235;-65
2023/01/14 15:14:25;;;;;;;1.10;0.50;;;7.10;99.90;;;;;;4901002;29;20213;-65
2023/01/14 15:16:54;;;;;;;0.47;0.47;;;7.10;99.90;;;;;;4912399;29;20663;-65
2023/01/14 15:19:23;;;;;;;0.52;0.52;;;7.10;99.90;;;;;;4911599;29;20216;-65
2023/01/14 15:21:50;;;;;;;0.40;0.40;;;7.20;99.90;;;;;;4915440;29;20237;-66
2023/01/14 15:24:19;;;;;;;0.50;0.50;;;7.10;99.90;;;;;;4908380;29;20215;-67
2023/01/14 15:26:47;;;;;;;2.90;1.30;;;7.20;99.90;;;;;;4904518;29;20248;-66
2023/01/14 15:29:18;;;;;;;4.13;1.08;;;7.20;99.90;;;;;;4904974;29;20754;-66
2023/01/14 15:31:47;;;;;;;0.40;0.40;;;7.10;99.90;;;;;;4912640;29;20231;-66
2023/01/14 15:34:23;;;;;;;0.50;0.50;;;7.20;99.90;;;;;;4912561;29;20205;-66
2023/01/14 15:37:05;;;;;;;1.63;1.63;;;7.20;99.90;;;;;;4913913;29;20212;-66
2023/01/14 15:39:32;;;;;;;0.77;0.77;;;7.20;99.90;;;;;;4910012;29;20561;-65
2023/01/14 15:42:03;;;;;;;0.50;0.50;;;7.20;99.90;;;;;;4906669;29;20252;-65
2023/01/14 15:44:31;;;;;;;0.50;0.50;;;7.20;99.90;;;;;;4910577;29;20295;-66
2023/01/14 15:46:59;;;;;;;0.40;0.40;;;7.20;99.90;;;;;;4912207;29;20247;-66
2023/01/14 15:49:28;;;;;;;0.68;0.68;;;7.30;99.90;;;;;;4914878;29;20945;-66
2023/01/14 15:51:55;;;;;;;0.40;0.40;;;7.30;99.90;;;;;;4913246;29;20260;-66
2023/01/14 15:54:30;;;;;;;0.30;0.30;;;7.30;99.90;;;;;;4914666;29;20228;-66
2023/01/14 15:56:57;;;;;;;0.70;0.70;;;7.30;99.90;;;;;;4912499;29;20214;-66
2023/01/14 15:59:26;;;;;;;10.50;1.42;;;7.30;99.90;;;;;;4903057;29;20690;-65
2023/01/14 16:01:54;;;;;;;0.73;0.73;;;7.40;99.90;;;;;;4906225;29;20830;-66
2023/01/14 16:04:24;;;;;;;0.73;0.43;;;7.40;99.90;;;;;;4910558;29;20220;-66
2023/01/14 16:07:05;;;;;;;0.52;0.52;;;7.40;99.90;;;;;;4905310;29;20228;-66
2023/01/14 16:09:33;;;;;;;0.63;0.63;;;7.50;99.90;;;;;;4912092;29;20582;-66
2023/01/14 16:12:05;;;;;;;0.57;0.47;;;7.50;99.90;;;;;;4908431;29;20549;-66
2023/01/14 16:14:36;;;;;;;1.35;1.27;;;7.50;99.90;;;;;;4905009;29;20224;-66
2023/01/14 16:17:04;;;;;;;0.77;0.77;;;7.50;99.90;;;;;;4909133;29;20216;-66
2023/01/14 16:19:32;;;;;;;3.95;0.75;;;7.50;99.90;;;;;;4902921;29;20517;-66
2023/01/14 16:21:59;;;;;;;2.22;1.38;;;7.50;99.90;;;;;;4913539;29;20232;-66
2023/01/14 16:24:25;;;;;;;0.45;0.45;;;7.50;99.90;;;;;;4911592;29;20212;-67
2023/01/14 16:26:52;;;;;;;0.40;0.40;;;7.50;99.90;;;;;;4907653;29;20256;-66
2023/01/14 16:29:19;;;;;;;0.80;0.40;;;7.50;99.90;;;;;;4899011;29;20229;-66
2023/01/14 16:31:46;;;;;;;0.88;0.88;;;7.60;99.90;;;;;;4914269;29;20235;-66
2023/01/14 16:34:13;;;;;;;1.30;0.63;;;7.50;99.90;;;;;;4905558;29;20213;-66
2023/01/14 16:36:41;;;;;;;1.15;1.15;;;7.60;99.90;;;;;;4906574;29;20209;-66
2023/01/14 16:39:13;;;;;;;0.77;0.65;;;7.60;99.90;;;;;;4907122;29;20217;-66
2023/01/14 16:41:42;;;;;;;0.90;0.88;;;7.60;99.90;;;;;;4906319;29;20232;-66
2023/01/14 16:44:09;;;;;;;0.50;0.50;;;7.60;99.90;;;;;;4908332;29;20244;-65
2023/01/14 16:46:35;;;;;;;5.07;1.70;;;7.60;99.90;;;;;;4913471;29;20686;-65
2023/01/14 16:49:02;;;;;;;0.73;0.73;;;7.60;99.90;;;;;;4908770;29;20215;-65
2023/01/14 16:51:30;;;;;;;1.75;0.73;;;7.60;99.90;;;;;;4913295;29;20264;-64
2023/01/14 16:54:00;;;;;;;2.53;1.10;;;7.80;99.90;;;;;;4906803;29;20209;-64
2023/01/14 16:56:27;;;;;;;0.65;0.65;;;7.80;99.90;;;;;;4911895;29;20236;-64
2023/01/14 16:58:55;;;;;;;1.20;0.47;;;7.80;99.90;;;;;;4912539;29;20224;-66
2023/01/14 17:01:22;;;;;;;1.50;1.20;;;7.80;99.90;;;;;;4905186;29;20248;-66
2023/01/14 17:03:49;;;;;;;0.70;0.43;;;7.70;99.90;;;;;;4912484;29;20229;-66
2023/01/14 17:06:16;;;;;;;1.95;0.75;;;7.70;99.90;;;;;;4911434;29;20224;-66
2023/01/14 17:08:43;;;;;;;0.50;0.50;;;7.80;99.90;;;;;;4903591;29;20206;-66
2023/01/14 17:13:52;;;;;;;0.57;0.57;;;7.80;99.90;;;;;;4907832;29;20272;-66
2023/01/14 17:16:19;;;;;;;2.75;1.00;;;7.80;99.90;;;;;;4909619;29;20315;-66
2023/01/14 17:18:45;;;;;;;0.73;0.73;;;7.90;99.90;;;;;;4910208;29;20244;-66
2023/01/14 17:21:12;;;;;;;1.30;1.20;;;7.90;99.90;;;;;;4903648;29;20236;-67
2023/01/14 17:23:39;;;;;;;0.95;0.95;;;7.90;99.90;;;;;;4910013;29;20227;-66
2023/01/14 17:26:08;;;;;;;0.80;0.80;;;7.90;99.90;;;;;;4905417;29;20217;-66
2023/01/14 17:28:37;;;;;;;1.55;1.45;;;7.90;99.90;;;;;;4913094;29;20232;-66
2023/01/14 17:31:07;;;;;;;2.58;1.10;;;7.90;99.90;;;;;;4897862;29;20721;-66
2023/01/14 17:33:33;;;;;;;1.00;0.95;;;7.90;99.90;;;;;;4908880;29;20232;-66
2023/01/14 17:36:04;;;;;;;0.30;0.30;;;7.90;99.90;;;;;;4903798;29;20223;-66
2023/01/14 17:38:31;;;;;;;1.05;1.05;;;7.90;99.90;;;;;;4905103;29;20216;-64
2023/01/14 17:41:00;;;;;;;0.30;0.30;;;8.00;99.90;;;;;;4907090;29;20236;-65
2023/01/14 17:43:26;;;;;;;0.40;0.40;;;8.00;99.90;;;;;;4906065;29;20216;-65
2023/01/14 17:45:55;;;;;;;0.80;0.80;;;8.00;99.90;;;;;;4902909;29;20211;-65
2023/01/14 17:48:22;;;;;;;0.40;0.40;;;8.00;99.90;;;;;;4904490;29;20269;-65
2023/01/14 17:50:48;;;;;;;0.80;0.80;;;8.10;99.90;;;;;;4904820;29;20288;-65
2023/01/14 17:53:15;;;;;;;0.73;0.73;;;8.10;99.90;;;;;;4904223;29;20209;-65
2023/01/14 17:55:42;;;;;;;0.20;0.20;;;8.10;99.90;;;;;;4906092;29;20304;-65
2023/01/14 17:58:08;;;;;;;0.73;0.73;;;8.10;99.90;;;;;;4903790;29;20686;-65
2023/01/14 18:00:35;;;;;;;0.60;0.60;;;8.10;99.90;;;;;;4903808;29;20222;-65
2023/01/14 18:03:03;;;;;;;0.45;0.45;;;8.10;99.90;;;;;;4906844;29;20210;-65
2023/01/14 18:05:30;;;;;;;0.40;0.40;;;8.20;99.90;;;;;;4902502;29;20220;-65
2023/01/14 18:07:57;;;;;;;0.35;0.35;;;8.20;99.90;;;;;;4907199;29;20256;-65
2023/01/14 18:10:23;;;;;;;0.70;0.70;;;8.20;99.90;;;;;;4903084;29;20210;-65
2023/01/14 18:12:50;;;;;;;0.52;0.52;;;8.20;99.90;;;;;;4903628;29;20874;-65
2023/01/14 18:15:17;;;;;;;0.82;0.82;;;8.20;99.90;;;;;;4903654;29;20218;-65
2023/01/14 18:17:43;;;;;;;0.60;0.60;;;8.20;99.90;;;;;;4905638;29;20542;-65
2023/01/14 18:20:12;;;;;;;0.95;0.63;;;8.20;99.90;;;;;;4903708;29;20213;-65
2023/01/14 18:22:39;;;;;;;1.98;1.08;;;8.30;99.90;;;;;;4904839;29;20729;-65
2023/01/14 18:25:06;;;;;;;0.90;0.90;;;8.30;99.90;;;;;;4903290;29;20213;-65
2023/01/14 18:27:33;;;;;;;0.73;0.73;;;8.30;99.90;;;;;;4901149;29;20226;-65
2023/01/14 18:30:00;;;;;;;1.10;0.63;;;8.30;99.90;;;;;;4900616;29;20237;-65
2023/01/14 18:32:26;;;;;;;2.00;0.60;;;8.40;99.90;;;;;;4905063;29;20233;-65
2023/01/14 18:34:53;;;;;;;1.15;1.15;;;8.40;99.90;;;;;;4904859;29;20211;-65
2023/01/14 18:37:21;;;;;;;0.30;0.30;;;8.40;99.90;;;;;;4912454;29;20557;-65
2023/01/14 18:39:48;;;;;;;0.68;0.68;;;8.40;99.90;;;;;;4909560;29;20218;-65
2023/01/14 18:42:15;;;;;;;1.80;1.25;;;8.40;99.90;;;;;;4912770;29;20244;-65
2023/01/14 18:44:42;;;;;;;0.75;0.75;;;8.40;99.90;;;;;;4910150;29;20213;-65
2023/01/14 18:47:11;;;;;;;0.30;0.30;;;8.40;99.90;;;;;;4916547;29;20229;-65